Terminal Aerodrome Forecast
Issued by NWS

Home | Current Version | Previous Version | Text Only | Print | Product List | Glossary On
Versions: 1 2 3 4 5 6 7 8 9 10 11 12 13 14 15 16 17 18
709
FTUS43 KTOP 231122
TAFFOE
TAF
KFOE 231122Z 2312/2412 25007KT P6SM FEW250 WS009/27040KT
     FM231600 33019G29KT P6SM SCT150
     FM240300 31010KT P6SM SCT150 WS010/32040KT=

USA.gov is the U.S. government's official web portal to all federal, state and local government web resources and services.